Slocum, Rhode Island
Current Conditions -  °F | °C
As of 5:53 AM on Thursday 23 Oct 2014 (Local Time) from KUUU Reporting Station
Haze Haze  
Wind Chill: 55°   Ceiling: 600
Heat Index: 55°   Visibility: 5mi
Dew Point: 51°   Wind: 20mph
Humidity: 86%   Direction: 10°N
Pressure: 29.57"   Gusts: 28mph
Location:  41.53°N, 71.52°W
Report Text: KUUU 230953Z AUTO 01017G24KT 5SM BR OVC006 13/11 A2957 RMK AO2 PK WND 36029/0937 RAE49 SLP013 P0001 T01280106
Loading
Personal Weather Stations






























Interactive Weather Map
Tropical Storm Tracking
New forecast layout! Learn more

10-Day Weather Forecast

Advertisements
Track Severe Weather on mobile